Magnum — 2CNV9 — position and weather

sailwx.info

Track history (hours):
 
Tides and Currents Weather Stations Pressure Air Temp Water Temp Dewpoint Dewpoint Depression Visibility Wind Speed Wind Dir Waves Ship Positions

Magnum

Last reported at 2018-Jun-11 10:10 UTC. Time now 2018-Jun-21 20:01 UTC.
Position N 38°18' E 015°29'.
Warning: this ship's position is 10 days out of date.

Type: Pleasure craft. MMSI: 235074359.

Date/timePositionNaut miles runAvg speedWind from/ knotsBaromVisibWave heightAir tempDewpointWater temp
2018-Jun-11 10:10N 38°18' E 015°29'2 9.4
2018-Jun-11 10:00N 38°17' E 015°28'5 9.3
2018-Jun-11 09:30N 38°15' E 015°22'5 9.2
2018-Jun-11 09:00N 38°14' E 015°17'2 3.4
2018-Jun-11 08:29N 38°13' E 015°15'0 0.0
2018-Jun-11 07:59N 38°13' E 015°15'0 0.0
2018-Jun-11 07:29N 38°13' E 015°15'0 0.0
2018-Jun-11 06:59N 38°13' E 015°15'0 0.0
2018-Jun-11 06:29N 38°13' E 015°15'0 0.0
2018-Jun-11 05:59N 38°13' E 015°15'0 0.0
2018-Jun-11 05:29N 38°13' E 015°15'0 0.0
2018-Jun-11 04:59N 38°13' E 015°15'0 0.0
2018-Jun-11 04:29N 38°13' E 015°15'0 0.0
2018-Jun-11 03:59N 38°13' E 015°15'0 0.0
2018-Jun-11 03:29N 38°13' E 015°15'0 0.0
2018-Jun-11 02:59N 38°13' E 015°15'0 0.0
2018-Jun-11 02:29N 38°13' E 015°15'0 0.0
2018-Jun-11 01:59N 38°13' E 015°15'0 0.0
2018-Jun-11 01:29N 38°13' E 015°15'0 0.0
2018-Jun-11 00:59N 38°13' E 015°15'0 0.0
2018-Jun-11 00:29N 38°13' E 015°15'0 0.0
2018-Jun-10 23:59N 38°13' E 015°15'0 0.0
2018-Jun-10 23:29N 38°13' E 015°15'0 0.0
2018-Jun-10 22:59N 38°13' E 015°15'0 0.0
2018-Jun-10 22:29N 38°13' E 015°15'0 0.0
2018-Jun-10 21:59N 38°13' E 015°15'0 0.0
2018-Jun-10 21:29N 38°13' E 015°15'0 0.0
2018-Jun-10 20:59N 38°13' E 015°15'0 0.0
2018-Jun-10 20:29N 38°13' E 015°15'0 0.0
2018-Jun-10 19:59N 38°13' E 015°15'0 0.0
2018-Jun-10 19:29N 38°13' E 015°15'1 2.9
2018-Jun-10 19:00N 38°14' E 015°15'4 7.9
2018-Jun-10 18:30N 38°17' E 015°12'86 9.2
2018-Jun-10 09:04N 38°15' E 013°22'1 9.1
2018-Jun-10 09:00N 38°15' E 013°21'5 9.2
2018-Jun-10 08:29N 38°16' E 013°15'4 9.3
2018-Jun-10 08:00N 38°17' E 013°09'  
2018-Jun-07 09:54N 39°22' E 002°46'4 9.5
2018-Jun-07 09:28N 39°25' E 002°43'4 9.5
2018-Jun-07 09:00N 39°29' E 002°41'4 7.2
2018-Jun-07 08:28N 39°33' E 002°39'1 2.5
2018-Jun-07 08:00N 39°34' E 002°38'0 0.0
2018-Jun-07 07:30N 39°34' E 002°38'0 0.0
2018-Jun-07 07:00N 39°34' E 002°38'0 0.0
2018-Jun-07 06:30N 39°34' E 002°38'0 0.0
2018-Jun-07 06:00N 39°34' E 002°38'0 0.0
2018-Jun-07 05:30N 39°34' E 002°38'0 0.0
2018-Jun-07 05:00N 39°34' E 002°38'0 0.0
2018-Jun-07 04:30N 39°34' E 002°38'0 0.0
2018-Jun-07 04:00N 39°34' E 002°38'0 0.0
2018-Jun-07 03:30N 39°34' E 002°38'0 0.0
2018-Jun-07 03:00N 39°34' E 002°38'0 0.0
2018-Jun-07 02:30N 39°34' E 002°38'0 0.0
2018-Jun-07 02:00N 39°34' E 002°38'0 0.0
2018-Jun-07 01:30N 39°34' E 002°38'0 0.0
2018-Jun-07 01:00N 39°34' E 002°38'0 0.0
2018-Jun-07 00:30N 39°34' E 002°38'0 0.0
2018-Jun-07 00:00N 39°34' E 002°38'0 0.0
2018-Jun-06 23:30N 39°34' E 002°38'0 0.0
2018-Jun-06 23:00N 39°34' E 002°38'0 0.0
2018-Jun-06 22:30N 39°34' E 002°38'0 0.0
2018-Jun-06 22:00N 39°34' E 002°38'0 0.0
2018-Jun-06 21:30N 39°34' E 002°38'0 0.0
2018-Jun-06 21:00N 39°34' E 002°38'0 0.0
2018-Jun-06 20:30N 39°34' E 002°38'0 0.0
2018-Jun-06 20:00N 39°34' E 002°38'0 0.0
2018-Jun-06 19:30N 39°34' E 002°38'0 0.0
2018-Jun-06 19:00N 39°34' E 002°38'0 0.0
2018-Jun-06 18:30N 39°34' E 002°38'0 0.0
2018-Jun-06 18:00N 39°34' E 002°38'0 0.0
2018-Jun-06 17:30N 39°34' E 002°38'0 0.0
2018-Jun-06 17:00N 39°34' E 002°38'0 0.0
2018-Jun-06 16:30N 39°34' E 002°38'0 0.0
2018-Jun-06 16:00N 39°34' E 002°38'0 0.0
2018-Jun-06 15:30N 39°34' E 002°38'0 0.0
2018-Jun-06 15:00N 39°34' E 002°38'0 0.0
2018-Jun-06 14:30N 39°34' E 002°38'0 0.0
2018-Jun-06 14:00N 39°34' E 002°38'0 0.0
2018-Jun-06 13:30N 39°34' E 002°38'0 0.0
2018-Jun-06 13:00N 39°34' E 002°38'0 0.0
2018-Jun-06 12:30N 39°34' E 002°38'0 0.0
2018-Jun-06 12:00N 39°34' E 002°38'0 0.0
2018-Jun-06 11:30N 39°34' E 002°38'0 0.0
2018-Jun-06 11:00N 39°34' E 002°38'0 0.0
2018-Jun-06 10:30N 39°34' E 002°38'0 0.0
2018-Jun-06 10:00N 39°34' E 002°38'0 0.0
2018-Jun-06 09:30N 39°34' E 002°38'0 0.0
2018-Jun-06 08:54N 39°34' E 002°38'0 0.0
2018-Jun-06 08:30N 39°34' E 002°38'0 0.0
2018-Jun-06 08:00N 39°34' E 002°38'0 0.0
2018-Jun-06 07:30N 39°34' E 002°38'0 0.0
2018-Jun-06 07:00N 39°34' E 002°38'0 0.0
2018-Jun-06 06:30N 39°34' E 002°38'0 0.0
2018-Jun-06 06:00N 39°34' E 002°38'0 0.0
2018-Jun-06 05:30N 39°34' E 002°38'0 0.0
2018-Jun-06 05:00N 39°34' E 002°38'0 0.0
2018-Jun-06 04:30N 39°34' E 002°38'0 0.0
2018-Jun-06 04:00N 39°34' E 002°38'0 0.0
2018-Jun-06 03:30N 39°34' E 002°38'0 0.0
2018-Jun-06 03:00N 39°34' E 002°38'0 0.0
2018-Jun-06 02:30N 39°34' E 002°38'0 0.0
2018-Jun-06 02:00N 39°34' E 002°38'0 0.0
2018-Jun-06 01:30N 39°34' E 002°38'0 0.0
2018-Jun-06 00:57N 39°34' E 002°38'0 0.0
2018-Jun-06 00:30N 39°34' E 002°38'0 0.0
2018-Jun-06 00:00N 39°34' E 002°38'0 0.0
2018-Jun-05 23:30N 39°34' E 002°38'0 0.0
2018-Jun-05 23:00N 39°34' E 002°38'0 0.0
2018-Jun-05 22:30N 39°34' E 002°38'0 0.0
2018-Jun-05 22:00N 39°34' E 002°38'0 0.0
2018-Jun-05 21:30N 39°34' E 002°38'0 0.0
2018-Jun-05 21:00N 39°34' E 002°38'0 0.0
2018-Jun-05 20:30N 39°34' E 002°38'0 0.0
2018-Jun-05 20:00N 39°34' E 002°38'0 0.0
2018-Jun-05 19:30N 39°34' E 002°38'0 0.0
2018-Jun-05 19:00N 39°34' E 002°38'0 0.0
2018-Jun-05 18:30N 39°34' E 002°38'0 0.0
2018-Jun-05 18:00N 39°34' E 002°38'0 0.0
2018-Jun-05 17:30N 39°34' E 002°38'0 0.0
2018-Jun-05 17:00N 39°34' E 002°38'0 0.0
2018-Jun-05 16:30N 39°34' E 002°38'0 0.0
2018-Jun-05 16:00N 39°34' E 002°38'0 0.0
2018-Jun-05 15:30N 39°34' E 002°38'0 0.0
2018-Jun-05 15:00N 39°34' E 002°38'0 0.0
2018-Jun-05 14:30N 39°34' E 002°38'0 0.0
2018-Jun-05 14:00N 39°34' E 002°38'0 0.0
2018-Jun-05 13:30N 39°34' E 002°38'0 0.0
2018-Jun-05 13:00N 39°34' E 002°38'0 0.0
2018-Jun-05 12:30N 39°34' E 002°38'0 0.0
2018-Jun-05 12:00N 39°34' E 002°38'0 0.0
2018-Jun-05 11:30N 39°34' E 002°38'0 0.0
2018-Jun-05 11:00N 39°34' E 002°38'0 0.0
2018-Jun-05 10:30N 39°34' E 002°38'0 0.0
2018-Jun-05 10:00N 39°34' E 002°38'0 0.0
2018-Jun-05 09:30N 39°34' E 002°38'0 0.0
2018-Jun-05 09:00N 39°34' E 002°38'0 0.0
2018-Jun-05 08:30N 39°34' E 002°38'0 0.0
2018-Jun-05 08:00N 39°34' E 002°38'0 0.0
2018-Jun-05 07:30N 39°34' E 002°38'0 0.0
2018-Jun-05 07:00N 39°34' E 002°38'0 0.0
2018-Jun-05 06:30N 39°34' E 002°38'0 0.0
2018-Jun-05 06:00N 39°34' E 002°38'0 0.0
2018-Jun-05 05:30N 39°34' E 002°38'0 0.0
2018-Jun-05 05:00N 39°34' E 002°38'0 0.0
2018-Jun-05 04:30N 39°34' E 002°38'0 0.0
2018-Jun-05 04:00N 39°34' E 002°38'0 0.0
2018-Jun-05 03:30N 39°34' E 002°38'0 0.0
2018-Jun-05 03:00N 39°34' E 002°38'0 0.0
2018-Jun-05 02:30N 39°34' E 002°38'0 0.0
2018-Jun-05 02:00N 39°34' E 002°38'0 0.0
2018-Jun-05 01:30N 39°34' E 002°38'0 0.0
2018-Jun-05 00:57N 39°34' E 002°38'0 0.0
2018-Jun-05 00:30N 39°34' E 002°38'0 0.0
2018-Jun-05 00:00N 39°34' E 002°38'0 0.0
2018-Jun-04 23:30N 39°34' E 002°38'0 0.0
2018-Jun-04 23:00N 39°34' E 002°38'0 0.0
2018-Jun-04 22:30N 39°34' E 002°38'0 0.0
2018-Jun-04 22:00N 39°34' E 002°38'0 0.0
2018-Jun-04 21:30N 39°34' E 002°38'0 0.0
2018-Jun-04 21:00N 39°34' E 002°38'0 0.0
2018-Jun-04 20:30N 39°34' E 002°38'0 0.0
2018-Jun-04 20:00N 39°34' E 002°38'0 0.0
2018-Jun-04 19:30N 39°34' E 002°38'0 0.0
2018-Jun-04 19:00N 39°34' E 002°38'0 0.0
2018-Jun-04 18:30N 39°34' E 002°38'0 0.0
2018-Jun-04 18:00N 39°34' E 002°38'0 0.0
2018-Jun-04 17:27N 39°34' E 002°38'0 0.0
2018-Jun-04 17:00N 39°34' E 002°38'0 0.0
2018-Jun-04 16:30N 39°34' E 002°38'0 0.0
2018-Jun-04 16:00N 39°34' E 002°38'0 0.0
2018-Jun-04 15:30N 39°34' E 002°38'0 0.0
2018-Jun-04 15:00N 39°34' E 002°38'0 0.0
2018-Jun-04 14:30N 39°34' E 002°38'0 0.0
2018-Jun-04 14:00N 39°34' E 002°38'0 0.0
2018-Jun-04 13:30N 39°34' E 002°38'0 0.0
2018-Jun-04 13:00N 39°34' E 002°38'0 0.0
2018-Jun-04 12:30N 39°34' E 002°38'0 0.0
2018-Jun-04 12:00N 39°34' E 002°38'0 0.0
2018-Jun-04 11:30N 39°34' E 002°38'0 0.0
2018-Jun-04 11:00N 39°34' E 002°38'0 0.0
2018-Jun-04 10:30N 39°34' E 002°38'0 0.0
2018-Jun-04 10:00N 39°34' E 002°38'0 0.0
2018-Jun-04 09:30N 39°34' E 002°38'0 0.0
2018-Jun-04 09:00N 39°34' E 002°38'0 0.0
2018-Jun-04 08:30N 39°34' E 002°38'0 0.0
2018-Jun-04 08:00N 39°34' E 002°38'0 0.0
2018-Jun-04 07:30N 39°34' E 002°38'0 0.0
2018-Jun-04 07:00N 39°34' E 002°38'0 0.0
2018-Jun-04 06:30N 39°34' E 002°38'0 0.0
2018-Jun-04 05:54N 39°34' E 002°38'0 0.0
2018-Jun-04 05:30N 39°34' E 002°38'0 0.0
2018-Jun-04 05:00N 39°34' E 002°38'0 0.0
2018-Jun-04 04:30N 39°34' E 002°38'0 0.0
2018-Jun-04 04:00N 39°34' E 002°38'0 0.0
2018-Jun-04 03:30N 39°34' E 002°38'0 0.0
2018-Jun-04 03:00N 39°34' E 002°38'0 0.0
2018-Jun-04 02:30N 39°34' E 002°38'0 0.0
2018-Jun-04 02:00N 39°34' E 002°38'0 0.0
2018-Jun-04 01:30N 39°34' E 002°38'0 0.0
2018-Jun-04 01:00N 39°34' E 002°38'0 0.0
2018-Jun-04 00:30N 39°34' E 002°38'0 0.0
2018-Jun-04 00:00N 39°34' E 002°38'0 0.0
2018-Jun-03 23:30N 39°34' E 002°38'0 0.0
2018-Jun-03 23:00N 39°34' E 002°38'0 0.0
2018-Jun-03 22:30N 39°34' E 002°38'0 0.0
2018-Jun-03 22:00N 39°34' E 002°38'0 0.0
2018-Jun-03 21:30N 39°34' E 002°38'0 0.0
2018-Jun-03 21:00N 39°34' E 002°38'0 0.0
2018-Jun-03 20:30N 39°34' E 002°38'0 0.0
2018-Jun-03 19:57N 39°34' E 002°38'0 0.0
2018-Jun-03 19:30N 39°34' E 002°38'0 0.0
2018-Jun-03 19:00N 39°34' E 002°38'0 0.0
2018-Jun-03 18:30N 39°34' E 002°38'0 0.0
2018-Jun-03 18:00N 39°34' E 002°38'0 0.0
2018-Jun-03 17:30N 39°34' E 002°38'0 0.0
2018-Jun-03 17:00N 39°34' E 002°38'0 0.0
2018-Jun-03 16:30N 39°34' E 002°38'0 0.0
2018-Jun-03 16:00N 39°34' E 002°38'0 0.0
2018-Jun-03 15:30N 39°34' E 002°38'0 0.0
2018-Jun-03 15:00N 39°34' E 002°38'0 0.0
2018-Jun-03 14:30N 39°34' E 002°38'0 0.0
2018-Jun-03 14:00N 39°34' E 002°38'0 0.0
2018-Jun-03 13:30N 39°34' E 002°38'0 0.0
2018-Jun-03 12:57N 39°34' E 002°38'0 0.0
2018-Jun-03 12:30N 39°34' E 002°38'0 0.0
2018-Jun-03 12:00N 39°34' E 002°38'0 0.0
2018-Jun-03 11:30N 39°34' E 002°38'0 0.0
2018-Jun-03 11:00N 39°34' E 002°38'0 0.0
2018-Jun-03 09:45N 39°34' E 002°38'0 0.0
2018-Jun-03 09:30N 39°34' E 002°38'0 0.0
2018-Jun-03 09:00N 39°34' E 002°38'0 0.0
2018-Jun-03 08:30N 39°34' E 002°38'0 0.0
2018-Jun-03 07:57N 39°34' E 002°38'0 0.0
2018-Jun-03 07:30N 39°34' E 002°38'0 0.0
2018-Jun-03 07:00N 39°34' E 002°38'0 0.0
2018-Jun-03 06:30N 39°34' E 002°38'0 0.0
2018-Jun-03 06:00N 39°34' E 002°38'0 0.0
2018-Jun-03 05:30N 39°34' E 002°38'0 0.0
2018-Jun-03 05:00N 39°34' E 002°38'0 0.0
2018-Jun-03 04:30N 39°34' E 002°38'0 0.0
2018-Jun-03 04:00N 39°34' E 002°38'0 0.0
2018-Jun-03 03:30N 39°34' E 002°38'0 0.0
2018-Jun-03 03:00N 39°34' E 002°38'0 0.0
2018-Jun-03 02:30N 39°34' E 002°38'0 0.0
2018-Jun-03 02:00N 39°34' E 002°38'0 0.0
2018-Jun-03 01:30N 39°34' E 002°38'0 0.0
2018-Jun-03 01:00N 39°34' E 002°38'0 0.0
2018-Jun-03 00:30N 39°34' E 002°38'0 0.0
2018-Jun-03 00:00N 39°34' E 002°38'0 0.0
2018-Jun-02 23:30N 39°34' E 002°38'0 0.0
2018-Jun-02 23:00N 39°34' E 002°38'0 0.0
2018-Jun-02 22:30N 39°34' E 002°38'0 0.0
2018-Jun-02 22:00N 39°34' E 002°38'0 0.0
2018-Jun-02 21:30N 39°34' E 002°38'0 0.0
2018-Jun-02 21:00N 39°34' E 002°38'0 0.0
2018-Jun-02 20:30N 39°34' E 002°38'0 0.0
2018-Jun-02 20:00N 39°34' E 002°38'0 0.0
2018-Jun-02 19:30N 39°34' E 002°38'0 0.0
2018-Jun-02 19:00N 39°34' E 002°38'0 0.0
2018-Jun-02 18:30N 39°34' E 002°38'0 0.0
2018-Jun-02 18:00N 39°34' E 002°38'0 0.0
2018-Jun-02 17:30N 39°34' E 002°38'0 0.0
2018-Jun-02 17:00N 39°34' E 002°38'0 0.0
2018-Jun-02 16:30N 39°34' E 002°38'0 0.0
2018-Jun-02 16:00N 39°34' E 002°38'0 0.0
2018-Jun-02 15:30N 39°34' E 002°38'0 0.0
2018-Jun-02 15:00N 39°34' E 002°38'0 0.0
2018-Jun-02 14:30N 39°34' E 002°38'0 0.0
2018-Jun-02 14:00N 39°34' E 002°38'0 0.0
2018-Jun-02 13:30N 39°34' E 002°38'0 0.0
2018-Jun-02 13:00N 39°34' E 002°38'0 0.0
2018-Jun-02 12:30N 39°34' E 002°38'0 0.0
2018-Jun-02 12:00N 39°34' E 002°38'0 0.0
2018-Jun-02 11:30N 39°34' E 002°38'0 0.0
2018-Jun-02 11:00N 39°34' E 002°38'0 0.0
2018-Jun-02 10:30N 39°34' E 002°38'0 0.0
2018-Jun-02 10:00N 39°34' E 002°38'0 0.0
2018-Jun-02 09:30N 39°34' E 002°38'0 0.0
2018-Jun-02 09:00N 39°34' E 002°38'0 0.0
2018-Jun-02 08:30N 39°34' E 002°38'0 0.0
2018-Jun-02 08:00N 39°34' E 002°38'0 0.0
2018-Jun-02 07:30N 39°34' E 002°38'0 0.0
2018-Jun-02 06:51N 39°34' E 002°38'0 0.0
2018-Jun-02 06:30N 39°34' E 002°38'0 0.0
2018-Jun-02 06:00N 39°34' E 002°38'0 0.0
2018-Jun-02 05:30N 39°34' E 002°38'0 0.0
2018-Jun-02 05:00N 39°34' E 002°38'0 0.0
2018-Jun-02 04:30N 39°34' E 002°38'0 0.0
2018-Jun-02 04:00N 39°34' E 002°38'0 0.0
2018-Jun-02 03:30N 39°34' E 002°38'0 0.0
2018-Jun-02 03:00N 39°34' E 002°38'0 0.0
2018-Jun-02 02:30N 39°34' E 002°38'0 0.0
2018-Jun-02 02:00N 39°34' E 002°38'0 0.0
2018-Jun-02 01:30N 39°34' E 002°38'0 0.0
2018-Jun-02 01:00N 39°34' E 002°38'0 0.0
2018-Jun-02 00:27N 39°34' E 002°38'0 0.0
2018-Jun-02 00:00N 39°34' E 002°38'0 0.0
2018-Jun-01 23:30N 39°34' E 002°38'0 0.0
2018-Jun-01 23:00N 39°34' E 002°38'0 0.0
2018-Jun-01 22:30N 39°34' E 002°38'0 0.0
2018-Jun-01 22:00N 39°34' E 002°38'0 0.0
2018-Jun-01 21:30N 39°34' E 002°38'0 0.0
2018-Jun-01 21:00N 39°34' E 002°38'0 0.0
2018-Jun-01 20:30N 39°34' E 002°38'0 0.0
2018-Jun-01 19:57N 39°34' E 002°38'0 0.0
2018-Jun-01 19:30N 39°34' E 002°38'0 0.0
2018-Jun-01 19:00N 39°34' E 002°38'0 0.0
2018-Jun-01 18:30N 39°34' E 002°38'0 0.0
2018-Jun-01 17:57N 39°34' E 002°38'0 0.0
2018-Jun-01 17:27N 39°34' E 002°38'0 0.0
2018-Jun-01 17:00N 39°34' E 002°38'0 0.0
2018-Jun-01 16:30N 39°34' E 002°38'0 0.0
2018-Jun-01 16:00N 39°34' E 002°38'0 0.0
2018-Jun-01 15:30N 39°34' E 002°38'0 0.0
2018-Jun-01 15:00N 39°34' E 002°38'0 0.0
2018-Jun-01 14:30N 39°34' E 002°38'0 0.0
2018-Jun-01 14:00N 39°34' E 002°38'0 0.0
2018-Jun-01 13:30N 39°34' E 002°38'0 0.0
2018-Jun-01 13:00N 39°34' E 002°38'0 0.1
2018-Jun-01 12:30N 39°34' E 002°38'0 0.1
2018-Jun-01 12:00N 39°34' E 002°38'0 0.0
2018-Jun-01 11:30N 39°34' E 002°38'0 0.0
2018-Jun-01 11:00N 39°34' E 002°38'0 0.0
2018-Jun-01 10:30N 39°34' E 002°38'  
Track history (hours):
 
Tides and Currents Weather Stations Pressure Air Temp Water Temp Dewpoint Dewpoint Depression Visibility Wind Speed Wind Dir Waves Ship Positions

Magnum

Last reported at 2018-Jun-11 10:10 UTC. Time now 2018-Jun-21 20:01 UTC.
Position N 38°18' E 015°29'.
Warning: this ship's position is 10 days out of date.

Type: Pleasure craft. MMSI: 235074359.

Date/timePositionNaut miles runAvg speedWind from/ knotsBaromVisibWave heightAir tempDewpointWater temp
2018-Jun-11 10:10N 38°18' E 015°29'2 9.4
2018-Jun-11 10:00N 38°17' E 015°28'5 9.3
2018-Jun-11 09:30N 38°15' E 015°22'5 9.2
2018-Jun-11 09:00N 38°14' E 015°17'2 3.4
2018-Jun-11 08:29N 38°13' E 015°15'0 0.0
2018-Jun-11 07:59N 38°13' E 015°15'0 0.0
2018-Jun-11 07:29N 38°13' E 015°15'0 0.0
2018-Jun-11 06:59N 38°13' E 015°15'0 0.0
2018-Jun-11 06:29N 38°13' E 015°15'0 0.0
2018-Jun-11 05:59N 38°13' E 015°15'0 0.0
2018-Jun-11 05:29N 38°13' E 015°15'0 0.0
2018-Jun-11 04:59N 38°13' E 015°15'0 0.0
2018-Jun-11 04:29N 38°13' E 015°15'0 0.0
2018-Jun-11 03:59N 38°13' E 015°15'0 0.0
2018-Jun-11 03:29N 38°13' E 015°15'0 0.0
2018-Jun-11 02:59N 38°13' E 015°15'0 0.0
2018-Jun-11 02:29N 38°13' E 015°15'0 0.0
2018-Jun-11 01:59N 38°13' E 015°15'0 0.0
2018-Jun-11 01:29N 38°13' E 015°15'0 0.0
2018-Jun-11 00:59N 38°13' E 015°15'0 0.0
2018-Jun-11 00:29N 38°13' E 015°15'0 0.0
2018-Jun-10 23:59N 38°13' E 015°15'0 0.0
2018-Jun-10 23:29N 38°13' E 015°15'0 0.0
2018-Jun-10 22:59N 38°13' E 015°15'0 0.0
2018-Jun-10 22:29N 38°13' E 015°15'0 0.0
2018-Jun-10 21:59N 38°13' E 015°15'0 0.0
2018-Jun-10 21:29N 38°13' E 015°15'0 0.0
2018-Jun-10 20:59N 38°13' E 015°15'0 0.0
2018-Jun-10 20:29N 38°13' E 015°15'0 0.0
2018-Jun-10 19:59N 38°13' E 015°15'0 0.0
2018-Jun-10 19:29N 38°13' E 015°15'1 2.9
2018-Jun-10 19:00N 38°14' E 015°15'4 7.9
2018-Jun-10 18:30N 38°17' E 015°12'86 9.2
2018-Jun-10 09:04N 38°15' E 013°22'1 9.1
2018-Jun-10 09:00N 38°15' E 013°21'5 9.2
2018-Jun-10 08:29N 38°16' E 013°15'4 9.3
2018-Jun-10 08:00N 38°17' E 013°09'  
2018-Jun-07 09:54N 39°22' E 002°46'4 9.5
2018-Jun-07 09:28N 39°25' E 002°43'4 9.5
2018-Jun-07 09:00N 39°29' E 002°41'4 7.2
2018-Jun-07 08:28N 39°33' E 002°39'1 2.5
2018-Jun-07 08:00N 39°34' E 002°38'0 0.0
2018-Jun-07 07:30N 39°34' E 002°38'0 0.0
2018-Jun-07 07:00N 39°34' E 002°38'0 0.0
2018-Jun-07 06:30N 39°34' E 002°38'0 0.0
2018-Jun-07 06:00N 39°34' E 002°38'0 0.0
2018-Jun-07 05:30N 39°34' E 002°38'0 0.0
2018-Jun-07 05:00N 39°34' E 002°38'0 0.0
2018-Jun-07 04:30N 39°34' E 002°38'0 0.0
2018-Jun-07 04:00N 39°34' E 002°38'0 0.0
2018-Jun-07 03:30N 39°34' E 002°38'0 0.0
2018-Jun-07 03:00N 39°34' E 002°38'0 0.0
2018-Jun-07 02:30N 39°34' E 002°38'0 0.0
2018-Jun-07 02:00N 39°34' E 002°38'0 0.0
2018-Jun-07 01:30N 39°34' E 002°38'0 0.0
2018-Jun-07 01:00N 39°34' E 002°38'0 0.0
2018-Jun-07 00:30N 39°34' E 002°38'0 0.0
2018-Jun-07 00:00N 39°34' E 002°38'0 0.0
2018-Jun-06 23:30N 39°34' E 002°38'0 0.0
2018-Jun-06 23:00N 39°34' E 002°38'0 0.0
2018-Jun-06 22:30N 39°34' E 002°38'0 0.0
2018-Jun-06 22:00N 39°34' E 002°38'0 0.0
2018-Jun-06 21:30N 39°34' E 002°38'0 0.0
2018-Jun-06 21:00N 39°34' E 002°38'0 0.0
2018-Jun-06 20:30N 39°34' E 002°38'0 0.0
2018-Jun-06 20:00N 39°34' E 002°38'0 0.0
2018-Jun-06 19:30N 39°34' E 002°38'0 0.0
2018-Jun-06 19:00N 39°34' E 002°38'0 0.0
2018-Jun-06 18:30N 39°34' E 002°38'0 0.0
2018-Jun-06 18:00N 39°34' E 002°38'0 0.0
2018-Jun-06 17:30N 39°34' E 002°38'0 0.0
2018-Jun-06 17:00N 39°34' E 002°38'0 0.0
2018-Jun-06 16:30N 39°34' E 002°38'0 0.0
2018-Jun-06 16:00N 39°34' E 002°38'0 0.0
2018-Jun-06 15:30N 39°34' E 002°38'0 0.0
2018-Jun-06 15:00N 39°34' E 002°38'0 0.0
2018-Jun-06 14:30N 39°34' E 002°38'0 0.0
2018-Jun-06 14:00N 39°34' E 002°38'0 0.0
2018-Jun-06 13:30N 39°34' E 002°38'0 0.0
2018-Jun-06 13:00N 39°34' E 002°38'0 0.0
2018-Jun-06 12:30N 39°34' E 002°38'0 0.0
2018-Jun-06 12:00N 39°34' E 002°38'0 0.0
2018-Jun-06 11:30N 39°34' E 002°38'0 0.0
2018-Jun-06 11:00N 39°34' E 002°38'0 0.0
2018-Jun-06 10:30N 39°34' E 002°38'0 0.0
2018-Jun-06 10:00N 39°34' E 002°38'0 0.0
2018-Jun-06 09:30N 39°34' E 002°38'0 0.0
2018-Jun-06 08:54N 39°34' E 002°38'0 0.0
2018-Jun-06 08:30N 39°34' E 002°38'0 0.0
2018-Jun-06 08:00N 39°34' E 002°38'0 0.0
2018-Jun-06 07:30N 39°34' E 002°38'0 0.0
2018-Jun-06 07:00N 39°34' E 002°38'0 0.0
2018-Jun-06 06:30N 39°34' E 002°38'0 0.0
2018-Jun-06 06:00N 39°34' E 002°38'0 0.0
2018-Jun-06 05:30N 39°34' E 002°38'0 0.0
2018-Jun-06 05:00N 39°34' E 002°38'0 0.0
2018-Jun-06 04:30N 39°34' E 002°38'0 0.0
2018-Jun-06 04:00N 39°34' E 002°38'0 0.0
2018-Jun-06 03:30N 39°34' E 002°38'0 0.0
2018-Jun-06 03:00N 39°34' E 002°38'0 0.0
2018-Jun-06 02:30N 39°34' E 002°38'0 0.0
2018-Jun-06 02:00N 39°34' E 002°38'0 0.0
2018-Jun-06 01:30N 39°34' E 002°38'0 0.0
2018-Jun-06 00:57N 39°34' E 002°38'0 0.0
2018-Jun-06 00:30N 39°34' E 002°38'0 0.0
2018-Jun-06 00:00N 39°34' E 002°38'0 0.0
2018-Jun-05 23:30N 39°34' E 002°38'0 0.0
2018-Jun-05 23:00N 39°34' E 002°38'0 0.0
2018-Jun-05 22:30N 39°34' E 002°38'0 0.0
2018-Jun-05 22:00N 39°34' E 002°38'0 0.0
2018-Jun-05 21:30N 39°34' E 002°38'0 0.0
2018-Jun-05 21:00N 39°34' E 002°38'0 0.0
2018-Jun-05 20:30N 39°34' E 002°38'0 0.0
2018-Jun-05 20:00N 39°34' E 002°38'0 0.0
2018-Jun-05 19:30N 39°34' E 002°38'0 0.0
2018-Jun-05 19:00N 39°34' E 002°38'0 0.0
2018-Jun-05 18:30N 39°34' E 002°38'0 0.0
2018-Jun-05 18:00N 39°34' E 002°38'0 0.0
2018-Jun-05 17:30N 39°34' E 002°38'0 0.0
2018-Jun-05 17:00N 39°34' E 002°38'0 0.0
2018-Jun-05 16:30N 39°34' E 002°38'0 0.0
2018-Jun-05 16:00N 39°34' E 002°38'0 0.0
2018-Jun-05 15:30N 39°34' E 002°38'0 0.0
2018-Jun-05 15:00N 39°34' E 002°38'0 0.0
2018-Jun-05 14:30N 39°34' E 002°38'0 0.0
2018-Jun-05 14:00N 39°34' E 002°38'0 0.0
2018-Jun-05 13:30N 39°34' E 002°38'0 0.0
2018-Jun-05 13:00N 39°34' E 002°38'0 0.0
2018-Jun-05 12:30N 39°34' E 002°38'0 0.0
2018-Jun-05 12:00N 39°34' E 002°38'0 0.0
2018-Jun-05 11:30N 39°34' E 002°38'0 0.0
2018-Jun-05 11:00N 39°34' E 002°38'0 0.0
2018-Jun-05 10:30N 39°34' E 002°38'0 0.0
2018-Jun-05 10:00N 39°34' E 002°38'0 0.0
2018-Jun-05 09:30N 39°34' E 002°38'0 0.0
2018-Jun-05 09:00N 39°34' E 002°38'0 0.0
2018-Jun-05 08:30N 39°34' E 002°38'0 0.0
2018-Jun-05 08:00N 39°34' E 002°38'0 0.0
2018-Jun-05 07:30N 39°34' E 002°38'0 0.0
2018-Jun-05 07:00N 39°34' E 002°38'0 0.0
2018-Jun-05 06:30N 39°34' E 002°38'0 0.0
2018-Jun-05 06:00N 39°34' E 002°38'0 0.0
2018-Jun-05 05:30N 39°34' E 002°38'0 0.0
2018-Jun-05 05:00N 39°34' E 002°38'0 0.0
2018-Jun-05 04:30N 39°34' E 002°38'0 0.0
2018-Jun-05 04:00N 39°34' E 002°38'0 0.0
2018-Jun-05 03:30N 39°34' E 002°38'0 0.0
2018-Jun-05 03:00N 39°34' E 002°38'0 0.0
2018-Jun-05 02:30N 39°34' E 002°38'0 0.0
2018-Jun-05 02:00N 39°34' E 002°38'0 0.0
2018-Jun-05 01:30N 39°34' E 002°38'0 0.0
2018-Jun-05 00:57N 39°34' E 002°38'0 0.0
2018-Jun-05 00:30N 39°34' E 002°38'0 0.0
2018-Jun-05 00:00N 39°34' E 002°38'0 0.0
2018-Jun-04 23:30N 39°34' E 002°38'0 0.0
2018-Jun-04 23:00N 39°34' E 002°38'0 0.0
2018-Jun-04 22:30N 39°34' E 002°38'0 0.0
2018-Jun-04 22:00N 39°34' E 002°38'0 0.0
2018-Jun-04 21:30N 39°34' E 002°38'0 0.0
2018-Jun-04 21:00N 39°34' E 002°38'0 0.0
2018-Jun-04 20:30N 39°34' E 002°38'0 0.0
2018-Jun-04 20:00N 39°34' E 002°38'0 0.0
2018-Jun-04 19:30N 39°34' E 002°38'0 0.0
2018-Jun-04 19:00N 39°34' E 002°38'0 0.0
2018-Jun-04 18:30N 39°34' E 002°38'0 0.0
2018-Jun-04 18:00N 39°34' E 002°38'0 0.0
2018-Jun-04 17:27N 39°34' E 002°38'0 0.0
2018-Jun-04 17:00N 39°34' E 002°38'0 0.0
2018-Jun-04 16:30N 39°34' E 002°38'0 0.0
2018-Jun-04 16:00N 39°34' E 002°38'0 0.0
2018-Jun-04 15:30N 39°34' E 002°38'0 0.0
2018-Jun-04 15:00N 39°34' E 002°38'0 0.0
2018-Jun-04 14:30N 39°34' E 002°38'0 0.0
2018-Jun-04 14:00N 39°34' E 002°38'0 0.0
2018-Jun-04 13:30N 39°34' E 002°38'0 0.0
2018-Jun-04 13:00N 39°34' E 002°38'0 0.0
2018-Jun-04 12:30N 39°34' E 002°38'0 0.0
2018-Jun-04 12:00N 39°34' E 002°38'0 0.0
2018-Jun-04 11:30N 39°34' E 002°38'0 0.0
2018-Jun-04 11:00N 39°34' E 002°38'0 0.0
2018-Jun-04 10:30N 39°34' E 002°38'0 0.0
2018-Jun-04 10:00N 39°34' E 002°38'0 0.0
2018-Jun-04 09:30N 39°34' E 002°38'0 0.0
2018-Jun-04 09:00N 39°34' E 002°38'0 0.0
2018-Jun-04 08:30N 39°34' E 002°38'0 0.0
2018-Jun-04 08:00N 39°34' E 002°38'0 0.0
2018-Jun-04 07:30N 39°34' E 002°38'0 0.0
2018-Jun-04 07:00N 39°34' E 002°38'0 0.0
2018-Jun-04 06:30N 39°34' E 002°38'0 0.0
2018-Jun-04 05:54N 39°34' E 002°38'0 0.0
2018-Jun-04 05:30N 39°34' E 002°38'0 0.0
2018-Jun-04 05:00N 39°34' E 002°38'0 0.0
2018-Jun-04 04:30N 39°34' E 002°38'0 0.0
2018-Jun-04 04:00N 39°34' E 002°38'0 0.0
2018-Jun-04 03:30N 39°34' E 002°38'0 0.0
2018-Jun-04 03:00N 39°34' E 002°38'0 0.0
2018-Jun-04 02:30N 39°34' E 002°38'0 0.0
2018-Jun-04 02:00N 39°34' E 002°38'0 0.0
2018-Jun-04 01:30N 39°34' E 002°38'0 0.0
2018-Jun-04 01:00N 39°34' E 002°38'0 0.0
2018-Jun-04 00:30N 39°34' E 002°38'0 0.0
2018-Jun-04 00:00N 39°34' E 002°38'0 0.0
2018-Jun-03 23:30N 39°34' E 002°38'0 0.0
2018-Jun-03 23:00N 39°34' E 002°38'0 0.0
2018-Jun-03 22:30N 39°34' E 002°38'0 0.0
2018-Jun-03 22:00N 39°34' E 002°38'0 0.0
2018-Jun-03 21:30N 39°34' E 002°38'0 0.0
2018-Jun-03 21:00N 39°34' E 002°38'0 0.0
2018-Jun-03 20:30N 39°34' E 002°38'0 0.0
2018-Jun-03 19:57N 39°34' E 002°38'0 0.0
2018-Jun-03 19:30N 39°34' E 002°38'0 0.0
2018-Jun-03 19:00N 39°34' E 002°38'0 0.0
2018-Jun-03 18:30N 39°34' E 002°38'0 0.0
2018-Jun-03 18:00N 39°34' E 002°38'0 0.0
2018-Jun-03 17:30N 39°34' E 002°38'0 0.0
2018-Jun-03 17:00N 39°34' E 002°38'0 0.0
2018-Jun-03 16:30N 39°34' E 002°38'0 0.0
2018-Jun-03 16:00N 39°34' E 002°38'0 0.0
2018-Jun-03 15:30N 39°34' E 002°38'0 0.0
2018-Jun-03 15:00N 39°34' E 002°38'0 0.0
2018-Jun-03 14:30N 39°34' E 002°38'0 0.0
2018-Jun-03 14:00N 39°34' E 002°38'0 0.0
2018-Jun-03 13:30N 39°34' E 002°38'0 0.0
2018-Jun-03 12:57N 39°34' E 002°38'0 0.0
2018-Jun-03 12:30N 39°34' E 002°38'0 0.0
2018-Jun-03 12:00N 39°34' E 002°38'0 0.0
2018-Jun-03 11:30N 39°34' E 002°38'0 0.0
2018-Jun-03 11:00N 39°34' E 002°38'0 0.0
2018-Jun-03 09:45N 39°34' E 002°38'0 0.0
2018-Jun-03 09:30N 39°34' E 002°38'0 0.0
2018-Jun-03 09:00N 39°34' E 002°38'0 0.0
2018-Jun-03 08:30N 39°34' E 002°38'0 0.0
2018-Jun-03 07:57N 39°34' E 002°38'0 0.0
2018-Jun-03 07:30N 39°34' E 002°38'0 0.0
2018-Jun-03 07:00N 39°34' E 002°38'0 0.0
2018-Jun-03 06:30N 39°34' E 002°38'0 0.0
2018-Jun-03 06:00N 39°34' E 002°38'0 0.0
2018-Jun-03 05:30N 39°34' E 002°38'0 0.0
2018-Jun-03 05:00N 39°34' E 002°38'0 0.0
2018-Jun-03 04:30N 39°34' E 002°38'0 0.0
2018-Jun-03 04:00N 39°34' E 002°38'0 0.0
2018-Jun-03 03:30N 39°34' E 002°38'0 0.0
2018-Jun-03 03:00N 39°34' E 002°38'0 0.0
2018-Jun-03 02:30N 39°34' E 002°38'0 0.0
2018-Jun-03 02:00N 39°34' E 002°38'0 0.0
2018-Jun-03 01:30N 39°34' E 002°38'0 0.0
2018-Jun-03 01:00N 39°34' E 002°38'0 0.0
2018-Jun-03 00:30N 39°34' E 002°38'0 0.0
2018-Jun-03 00:00N 39°34' E 002°38'0 0.0
2018-Jun-02 23:30N 39°34' E 002°38'0 0.0
2018-Jun-02 23:00N 39°34' E 002°38'0 0.0
2018-Jun-02 22:30N 39°34' E 002°38'0 0.0
2018-Jun-02 22:00N 39°34' E 002°38'0 0.0
2018-Jun-02 21:30N 39°34' E 002°38'0 0.0
2018-Jun-02 21:00N 39°34' E 002°38'0 0.0
2018-Jun-02 20:30N 39°34' E 002°38'0 0.0
2018-Jun-02 20:00N 39°34' E 002°38'0 0.0
2018-Jun-02 19:30N 39°34' E 002°38'0 0.0
2018-Jun-02 19:00N 39°34' E 002°38'0 0.0
2018-Jun-02 18:30N 39°34' E 002°38'0 0.0
2018-Jun-02 18:00N 39°34' E 002°38'0 0.0
2018-Jun-02 17:30N 39°34' E 002°38'0 0.0
2018-Jun-02 17:00N 39°34' E 002°38'0 0.0
2018-Jun-02 16:30N 39°34' E 002°38'0 0.0
2018-Jun-02 16:00N 39°34' E 002°38'0 0.0
2018-Jun-02 15:30N 39°34' E 002°38'0 0.0
2018-Jun-02 15:00N 39°34' E 002°38'0 0.0
2018-Jun-02 14:30N 39°34' E 002°38'0 0.0
2018-Jun-02 14:00N 39°34' E 002°38'0 0.0
2018-Jun-02 13:30N 39°34' E 002°38'0 0.0
2018-Jun-02 13:00N 39°34' E 002°38'0 0.0
2018-Jun-02 12:30N 39°34' E 002°38'0 0.0
2018-Jun-02 12:00N 39°34' E 002°38'0 0.0
2018-Jun-02 11:30N 39°34' E 002°38'0 0.0
2018-Jun-02 11:00N 39°34' E 002°38'0 0.0
2018-Jun-02 10:30N 39°34' E 002°38'0 0.0
2018-Jun-02 10:00N 39°34' E 002°38'0 0.0
2018-Jun-02 09:30N 39°34' E 002°38'0 0.0
2018-Jun-02 09:00N 39°34' E 002°38'0 0.0
2018-Jun-02 08:30N 39°34' E 002°38'0 0.0
2018-Jun-02 08:00N 39°34' E 002°38'0 0.0
2018-Jun-02 07:30N 39°34' E 002°38'0 0.0
2018-Jun-02 06:51N 39°34' E 002°38'0 0.0
2018-Jun-02 06:30N 39°34' E 002°38'0 0.0
2018-Jun-02 06:00N 39°34' E 002°38'0 0.0
2018-Jun-02 05:30N 39°34' E 002°38'0 0.0
2018-Jun-02 05:00N 39°34' E 002°38'0 0.0
2018-Jun-02 04:30N 39°34' E 002°38'0 0.0
2018-Jun-02 04:00N 39°34' E 002°38'0 0.0
2018-Jun-02 03:30N 39°34' E 002°38'0 0.0
2018-Jun-02 03:00N 39°34' E 002°38'0 0.0
2018-Jun-02 02:30N 39°34' E 002°38'0 0.0
2018-Jun-02 02:00N 39°34' E 002°38'0 0.0
2018-Jun-02 01:30N 39°34' E 002°38'0 0.0
2018-Jun-02 01:00N 39°34' E 002°38'0 0.0
2018-Jun-02 00:27N 39°34' E 002°38'0 0.0
2018-Jun-02 00:00N 39°34' E 002°38'0 0.0
2018-Jun-01 23:30N 39°34' E 002°38'0 0.0
2018-Jun-01 23:00N 39°34' E 002°38'0 0.0
2018-Jun-01 22:30N 39°34' E 002°38'0 0.0
2018-Jun-01 22:00N 39°34' E 002°38'0 0.0
2018-Jun-01 21:30N 39°34' E 002°38'0 0.0
2018-Jun-01 21:00N 39°34' E 002°38'0 0.0
2018-Jun-01 20:30N 39°34' E 002°38'0 0.0
2018-Jun-01 19:57N 39°34' E 002°38'0 0.0
2018-Jun-01 19:30N 39°34' E 002°38'0 0.0
2018-Jun-01 19:00N 39°34' E 002°38'0 0.0
2018-Jun-01 18:30N 39°34' E 002°38'0 0.0
2018-Jun-01 17:57N 39°34' E 002°38'0 0.0
2018-Jun-01 17:27N 39°34' E 002°38'0 0.0
2018-Jun-01 17:00N 39°34' E 002°38'0 0.0
2018-Jun-01 16:30N 39°34' E 002°38'0 0.0
2018-Jun-01 16:00N 39°34' E 002°38'0 0.0
2018-Jun-01 15:30N 39°34' E 002°38'0 0.0
2018-Jun-01 15:00N 39°34' E 002°38'0 0.0
2018-Jun-01 14:30N 39°34' E 002°38'0 0.0
2018-Jun-01 14:00N 39°34' E 002°38'0 0.0
2018-Jun-01 13:30N 39°34' E 002°38'0 0.0
2018-Jun-01 13:00N 39°34' E 002°38'0 0.1
2018-Jun-01 12:30N 39°34' E 002°38'0 0.1
2018-Jun-01 12:00N 39°34' E 002°38'0 0.0
2018-Jun-01 11:30N 39°34' E 002°38'0 0.0
2018-Jun-01 11:00N 39°34' E 002°38'0 0.0
2018-Jun-01 10:30N 39°34' E 002°38'  

Dump ship's entire track history